createdAt,value
2017-06-13T00:00:14.817Z,51.58
2017-06-13T00:00:55.346Z,51.46
2017-06-13T00:01:35.871Z,51.2
2017-06-13T00:02:16.391Z,51.1
2017-06-13T00:02:56.930Z,51.58
2017-06-13T00:03:37.471Z,51.77
2017-06-13T00:04:18.006Z,51.68
2017-06-13T00:04:58.526Z,51.48
2017-06-13T00:05:39.079Z,51.58
2017-06-13T00:06:19.601Z,51.36
2017-06-13T00:07:00.132Z,51.68
2017-06-13T00:07:40.657Z,51.75
2017-06-13T00:08:21.181Z,51.75
2017-06-13T00:09:01.706Z,52.06
2017-06-13T00:09:42.233Z,52.16
2017-06-13T00:10:22.749Z,52.45
2017-06-13T00:11:03.281Z,51.94
2017-06-13T00:11:43.804Z,52.61
2017-06-13T00:12:24.333Z,53.41
2017-06-13T00:13:04.862Z,52.73
2017-06-13T00:13:45.398Z,52.73
2017-06-13T00:14:25.913Z,52.13
2017-06-13T00:15:06.438Z,52.52
2017-06-13T00:15:46.967Z,53.03
2017-06-13T00:16:27.488Z,52.71
2017-06-13T00:17:08.015Z,52.64
2017-06-13T00:17:48.571Z,52.71
2017-06-13T00:18:29.094Z,52.55
2017-06-13T00:19:09.640Z,52.55
2017-06-13T00:19:50.153Z,52.04
2017-06-13T00:20:30.673Z,51.94
2017-06-13T00:21:11.282Z,52.25
2017-06-13T00:21:51.807Z,52.13
2017-06-13T00:22:32.348Z,52.71
2017-06-13T00:23:12.868Z,53.09
2017-06-13T00:23:53.402Z,53.19
2017-06-13T00:24:33.935Z,53.48
2017-06-13T00:25:14.464Z,53.87
2017-06-13T00:25:54.988Z,53.48
2017-06-13T00:26:35.514Z,53.19
2017-06-13T00:27:16.037Z,53
2017-06-13T00:27:56.570Z,53.19
2017-06-13T00:28:37.102Z,53.19
2017-06-13T00:29:17.630Z,53.58
2017-06-13T00:29:58.169Z,53.67
2017-06-13T00:30:38.684Z,54.25
2017-06-13T00:31:19.214Z,54.25
2017-06-13T00:31:59.747Z,54.25
2017-06-13T00:32:40.265Z,54.44
2017-06-13T00:33:20.787Z,54.74
2017-06-13T00:34:01.314Z,54.42
2017-06-13T00:34:41.845Z,54.74
2017-06-13T00:35:22.371Z,54.22
2017-06-13T00:36:02.889Z,53.77
2017-06-13T00:36:43.400Z,53.87
2017-06-13T00:37:23.934Z,53.67
2017-06-13T00:38:04.456Z,53.77
2017-06-13T00:38:44.979Z,53.58
2017-06-13T00:39:25.519Z,53
2017-06-13T00:41:43.918Z,52.61
2017-06-13T00:42:24.450Z,53.09
2017-06-13T00:43:05.016Z,52.87
2017-06-13T00:43:45.493Z,52.97
2017-06-13T00:44:26.021Z,53.07
2017-06-13T00:45:06.566Z,53.07
2017-06-13T00:45:47.093Z,52.69
2017-06-13T00:46:27.618Z,53.27
2017-06-13T00:47:08.128Z,53.07
2017-06-13T00:47:48.652Z,52.91
2017-06-13T00:48:29.168Z,53.09
2017-06-13T00:49:09.698Z,53.07
2017-06-13T00:49:50.230Z,53.17
2017-06-13T00:50:30.753Z,53.94
2017-06-13T00:51:11.268Z,53.67
2017-06-13T00:51:51.782Z,53.94
2017-06-13T00:52:32.301Z,54.52
2017-06-13T00:53:12.812Z,54.71
2017-06-13T00:53:53.342Z,55.22
2017-06-13T00:54:33.857Z,55.79
2017-06-13T00:55:14.377Z,55.48
2017-06-13T00:55:54.895Z,55.67
2017-06-13T00:56:35.422Z,56.25
2017-06-13T00:57:15.945Z,56.35
2017-06-13T00:57:56.490Z,56.54
2017-06-13T00:58:37.011Z,56.15
2017-06-13T00:59:17.550Z,56.15
2017-06-13T00:59:58.079Z,56.54
2017-06-13T01:00:38.611Z,57.02
2017-06-13T01:01:19.142Z,57.12
2017-06-13T01:01:59.663Z,57.79
2017-06-13T01:02:40.195Z,57.5
2017-06-13T01:03:20.723Z,57.98
2017-06-13T01:04:01.282Z,57.98
2017-06-13T01:04:41.764Z,58.08
2017-06-13T01:05:22.279Z,58.17
2017-06-13T01:06:02.808Z,58.08
2017-06-13T01:06:43.339Z,58.08
2017-06-13T01:07:23.863Z,58.17
2017-06-13T01:08:04.401Z,58.08
2017-06-13T01:08:44.922Z,58.75
2017-06-13T01:09:25.442Z,58.95
2017-06-13T01:10:05.974Z,58.65
2017-06-13T01:10:46.497Z,58.92
2017-06-13T01:11:27.026Z,59.04
2017-06-13T01:12:07.564Z,58.47
2017-06-13T01:12:48.090Z,58.47
2017-06-13T01:13:28.618Z,58.56
2017-06-13T01:14:09.136Z,58.44
2017-06-13T01:14:49.665Z,59.4
2017-06-13T01:15:30.200Z,59.3
2017-06-13T01:16:10.715Z,59.4
2017-06-13T01:16:51.237Z,59.59
2017-06-13T01:17:31.765Z,59.4
2017-06-13T01:18:12.302Z,59.97
2017-06-13T01:20:05.532Z,59.88
2017-06-13T01:20:46.056Z,59.69
2017-06-13T01:21:26.572Z,59.49
2017-06-13T01:22:07.092Z,59.49
2017-06-13T01:22:47.673Z,59.69
2017-06-13T01:23:28.198Z,60.07
2017-06-13T01:24:08.723Z,59.59
2017-06-13T01:24:49.265Z,59.69
2017-06-13T01:25:29.777Z,59.69
2017-06-13T01:26:10.291Z,59.69
2017-06-13T01:26:50.821Z,60.14
2017-06-13T01:27:31.353Z,59.11
2017-06-13T01:28:11.887Z,59.17
2017-06-13T01:28:52.416Z,58.4
2017-06-13T01:29:32.934Z,58.02
2017-06-13T01:30:13.468Z,57.54
2017-06-13T01:30:53.991Z,57.06
2017-06-13T01:31:34.513Z,57.35
2017-06-13T01:32:15.036Z,57.64
2017-06-13T01:32:55.557Z,57.73
2017-06-13T01:33:36.080Z,58.12
2017-06-13T01:34:16.611Z,58.4
2017-06-13T01:34:57.133Z,58.22
2017-06-13T01:35:37.702Z,58.02
2017-06-13T01:36:18.185Z,56.2
2017-06-13T01:36:58.703Z,56.48
2017-06-13T01:37:39.235Z,56.29
2017-06-13T01:38:19.748Z,56.48
2017-06-13T01:39:00.270Z,56.29
2017-06-13T01:39:40.791Z,56.1
2017-06-13T01:40:21.309Z,55.43
2017-06-13T01:41:01.837Z,55.52
2017-06-13T01:41:42.359Z,55.81
2017-06-13T01:42:22.883Z,55.52
2017-06-13T01:43:03.409Z,55.23
2017-06-13T01:43:43.985Z,55.52
2017-06-13T01:44:24.511Z,55.81
2017-06-13T01:45:05.045Z,55.62
2017-06-13T01:45:45.564Z,55.9
2017-06-13T01:46:26.087Z,55.62
2017-06-13T01:47:06.608Z,55.81
2017-06-13T01:47:47.142Z,55.71
2017-06-13T01:48:27.662Z,55.71
2017-06-13T01:49:08.179Z,55.81
2017-06-13T01:49:48.699Z,55.71
2017-06-13T01:50:29.228Z,55.81
2017-06-13T01:51:09.751Z,55.81
2017-06-13T01:51:50.279Z,55.71
2017-06-13T01:52:30.809Z,55.81
2017-06-13T01:53:11.337Z,55.81
2017-06-13T01:53:51.862Z,55.9
2017-06-13T01:54:32.379Z,55.33
2017-06-13T01:55:12.895Z,55.43
2017-06-13T01:55:53.416Z,55.33
2017-06-13T01:56:33.925Z,55.13
2017-06-13T01:57:14.467Z,55.33
2017-06-13T01:57:55.013Z,55.71
2017-06-13T01:58:35.541Z,55.52
2017-06-13T01:59:16.062Z,55.62
2017-06-13T01:59:56.584Z,55.9
2017-06-13T02:00:37.113Z,55.71
2017-06-13T02:01:17.648Z,55.71
2017-06-13T02:01:58.163Z,55.33
2017-06-13T02:02:38.679Z,55.62
2017-06-13T02:03:19.201Z,55.71
2017-06-13T02:03:59.718Z,55.71
2017-06-13T02:04:40.244Z,55.43
2017-06-13T02:05:20.756Z,55.81
2017-06-13T02:06:01.284Z,55.9
2017-06-13T02:06:41.804Z,55.68
2017-06-13T02:07:22.320Z,55.9
2017-06-13T02:08:02.842Z,55.81
2017-06-13T02:08:43.358Z,55.33
2017-06-13T02:09:23.876Z,55.71
2017-06-13T02:10:04.406Z,55.62
2017-06-13T02:10:44.955Z,55.62
2017-06-13T02:11:25.475Z,55.62
2017-06-13T02:12:06.016Z,56.1
2017-06-13T02:12:46.546Z,56.2
2017-06-13T02:13:27.152Z,55.9
2017-06-13T02:14:07.599Z,55.9
2017-06-13T02:14:48.111Z,56.48
2017-06-13T02:15:28.626Z,56.38
2017-06-13T02:16:09.159Z,56.48
2017-06-13T02:16:49.694Z,56.38
2017-06-13T02:17:30.203Z,56.29
2017-06-13T02:18:10.723Z,56.29
2017-06-13T02:18:51.250Z,56.48
2017-06-13T02:19:31.776Z,56.48
2017-06-13T02:20:12.301Z,56.1
2017-06-13T02:20:52.834Z,55.9
2017-06-13T02:21:33.372Z,55.9
2017-06-13T02:22:13.893Z,56.48
2017-06-13T02:22:54.424Z,56.67
2017-06-13T02:23:34.951Z,56
2017-06-13T02:24:15.465Z,55.9
2017-06-13T02:24:55.992Z,56
2017-06-13T02:25:36.514Z,56
2017-06-13T02:26:17.042Z,56
2017-06-13T02:26:57.581Z,56.48
2017-06-13T02:27:38.117Z,56.58
2017-06-13T02:28:18.642Z,56.77
2017-06-13T02:28:59.165Z,56.67
2017-06-13T02:29:39.695Z,56.48
2017-06-13T02:30:20.221Z,56.58
2017-06-13T02:31:00.760Z,56.77
2017-06-13T02:31:41.268Z,56.77
2017-06-13T02:32:21.797Z,57.35
2017-06-13T02:33:02.367Z,57.15
2017-06-13T02:33:42.885Z,57.35
2017-06-13T02:34:23.404Z,56.96
2017-06-13T02:35:03.931Z,57.73
2017-06-13T02:35:44.449Z,57.45
2017-06-13T02:36:24.968Z,57.15
2017-06-13T02:37:05.512Z,57.92
2017-06-13T02:37:46.006Z,57.54
2017-06-13T02:38:26.527Z,57.45
2017-06-13T02:39:07.050Z,57.06
2017-06-13T02:39:47.568Z,57.25
2017-06-13T02:40:28.090Z,57.35
2017-06-13T02:41:08.605Z,57.45
2017-06-13T02:41:49.120Z,57.83
2017-06-13T02:42:29.638Z,57.83
2017-06-13T02:43:10.161Z,57.64
2017-06-13T02:43:50.684Z,57.25
2017-06-13T02:44:31.231Z,57.83
2017-06-13T02:45:11.755Z,57.73
2017-06-13T02:45:52.278Z,57.7
2017-06-13T02:46:32.798Z,57.92
2017-06-13T02:47:13.348Z,58.09
2017-06-13T02:47:53.877Z,58.02
2017-06-13T02:50:07.156Z,58.4
2017-06-13T02:50:47.667Z,58.18
2017-06-13T02:51:28.183Z,58.22
2017-06-13T02:52:08.711Z,58.6
2017-06-13T02:52:49.238Z,58.7
2017-06-13T02:53:29.756Z,58.95
2017-06-13T02:54:10.279Z,58.79
2017-06-13T02:54:50.826Z,59.27
2017-06-13T02:55:31.353Z,58.95
2017-06-13T02:56:11.884Z,59.34
2017-06-13T02:56:52.399Z,59.05
2017-06-13T02:57:32.920Z,59.63
2017-06-13T02:58:13.442Z,59.44
2017-06-13T02:58:53.961Z,59.24
2017-06-13T02:59:34.483Z,59.66
2017-06-13T03:00:15.007Z,59.27
2017-06-13T03:00:55.537Z,59.63
2017-06-13T03:01:36.060Z,60.3
2017-06-13T03:02:16.580Z,60.3
2017-06-13T03:02:57.108Z,60.3
2017-06-13T03:03:37.635Z,60.21
2017-06-13T03:04:18.155Z,59.85
2017-06-13T03:04:58.698Z,60.14
2017-06-13T03:05:39.241Z,60.14
2017-06-13T03:06:19.742Z,60.42
2017-06-13T03:07:00.262Z,60.21
2017-06-13T03:07:40.793Z,60.21
2017-06-13T03:08:21.313Z,60.69
2017-06-13T03:09:01.843Z,60.88
2017-06-13T03:09:42.367Z,61.26
2017-06-13T03:10:22.890Z,61.19
2017-06-13T03:11:03.416Z,61.19
2017-06-13T03:11:43.934Z,61.19
2017-06-13T03:12:24.461Z,61.19
2017-06-13T03:13:04.976Z,61.19
2017-06-13T03:13:45.500Z,61.26
2017-06-13T03:14:26.051Z,61.29
2017-06-13T03:15:06.643Z,61.39
2017-06-13T03:15:47.159Z,61.1
2017-06-13T03:16:27.688Z,61.29
2017-06-13T03:17:08.210Z,61.16
2017-06-13T03:17:48.742Z,61.39
2017-06-13T03:18:29.267Z,61.39
2017-06-13T03:19:09.795Z,61.19
2017-06-13T03:19:50.331Z,61.26
2017-06-13T03:20:30.862Z,61.26
2017-06-13T03:21:11.384Z,61.39
2017-06-13T03:21:51.900Z,61.07
2017-06-13T03:22:32.502Z,60.97
2017-06-13T03:23:13.028Z,60.91
2017-06-13T03:23:53.553Z,61.68
2017-06-13T03:24:34.077Z,61.68
2017-06-13T03:25:14.599Z,61.55
2017-06-13T03:25:55.120Z,61.65
2017-06-13T03:26:35.650Z,61.87
2017-06-13T03:27:16.179Z,61.77
2017-06-13T03:27:56.727Z,61.77
2017-06-13T03:28:37.276Z,62.03
2017-06-13T03:29:17.791Z,61.65
2017-06-13T03:29:58.317Z,61.94
2017-06-13T03:30:38.835Z,61.94
2017-06-13T03:31:19.365Z,61.55
2017-06-13T03:31:59.889Z,61.94
2017-06-13T03:32:40.420Z,61.94
2017-06-13T03:33:20.949Z,62.03
2017-06-13T03:34:01.473Z,61.84
2017-06-13T03:34:41.999Z,61.94
2017-06-13T03:35:22.525Z,62.32
2017-06-13T03:36:03.045Z,62.41
2017-06-13T03:36:43.562Z,62.23
2017-06-13T03:37:24.081Z,62.03
2017-06-13T03:38:04.601Z,62.26
2017-06-13T03:38:45.134Z,61.84
2017-06-13T03:39:25.645Z,61.97
2017-06-13T03:40:06.168Z,62.35
2017-06-13T03:40:46.693Z,61.84
2017-06-13T03:41:27.214Z,61.55
2017-06-13T03:42:07.813Z,61.84
2017-06-13T03:42:48.335Z,61.97
2017-06-13T03:43:28.857Z,61.94
2017-06-13T03:44:09.371Z,62.06
2017-06-13T03:44:49.896Z,61.87
2017-06-13T03:45:30.412Z,62.16
2017-06-13T03:46:10.933Z,61.68
2017-06-13T03:46:51.455Z,61.87
2017-06-13T03:47:31.969Z,62.06
2017-06-13T03:48:12.490Z,61.97
2017-06-13T03:48:53.024Z,61.84
2017-06-13T03:49:33.541Z,61.97
2017-06-13T03:50:14.066Z,62.06
2017-06-13T03:50:54.613Z,61.87
2017-06-13T03:51:35.167Z,61.87
2017-06-13T03:52:15.687Z,61.68
2017-06-13T03:52:56.219Z,61.97
2017-06-13T03:53:36.736Z,61.87
2017-06-13T03:54:17.258Z,62.16
2017-06-13T03:54:57.771Z,61.58
2017-06-13T03:55:38.288Z,61.68
2017-06-13T03:56:18.813Z,61.87
2017-06-13T03:56:59.360Z,61.97
2017-06-13T03:57:39.874Z,61.68
2017-06-13T03:58:20.399Z,61.77
2017-06-13T03:59:00.915Z,62.16
2017-06-13T03:59:41.441Z,61.68
2017-06-13T04:00:21.962Z,61.49
2017-06-13T04:01:02.474Z,61.87
2017-06-13T04:01:42.997Z,61.68
2017-06-13T04:02:23.526Z,61.77
2017-06-13T04:03:04.069Z,61.61
2017-06-13T04:03:44.579Z,61.58
2017-06-13T04:04:25.100Z,61.77
2017-06-13T04:05:05.628Z,61.68
2017-06-13T04:05:46.151Z,61.32
2017-06-13T04:06:26.669Z,60.46
2017-06-13T04:07:07.179Z,60.55
2017-06-13T04:07:47.695Z,60.55
2017-06-13T04:08:28.228Z,60.46
2017-06-13T04:09:08.739Z,60.27
2017-06-13T04:09:49.245Z,60.36
2017-06-13T04:10:29.779Z,60.07
2017-06-13T04:11:10.315Z,60.46
2017-06-13T04:11:50.834Z,59.69
2017-06-13T04:12:31.351Z,59.69
2017-06-13T04:13:11.865Z,59.88
2017-06-13T04:13:52.382Z,60.17
2017-06-13T04:14:32.902Z,60.07
2017-06-13T04:15:13.421Z,60.17
2017-06-13T04:15:53.937Z,60.07
2017-06-13T04:16:34.450Z,60.07
2017-06-13T04:17:14.970Z,60.07
2017-06-13T04:17:55.494Z,60.17
2017-06-13T04:18:36.035Z,60.55
2017-06-13T04:19:16.555Z,59.69
2017-06-13T04:19:57.079Z,60.36
2017-06-13T04:20:37.619Z,59.97
2017-06-13T04:21:18.147Z,60.27
2017-06-13T04:21:58.689Z,60.36
2017-06-13T04:22:39.208Z,60.17
2017-06-13T04:23:19.735Z,60.58
2017-06-13T04:24:00.261Z,59.72
2017-06-13T04:24:40.785Z,59.72
2017-06-13T04:25:21.305Z,59.91
2017-06-13T04:26:01.843Z,59.62
2017-06-13T04:26:42.379Z,59.72
2017-06-13T04:27:22.905Z,59.81
2017-06-13T04:28:03.409Z,60.39
2017-06-13T04:28:43.933Z,60.3
2017-06-13T04:29:24.463Z,60.3
2017-06-13T04:30:04.988Z,60.3
2017-06-13T04:30:45.516Z,59.72
2017-06-13T04:31:26.031Z,60.3
2017-06-13T04:32:06.553Z,59.72
2017-06-13T04:32:47.078Z,59.33
2017-06-13T04:33:27.601Z,59.14
2017-06-13T04:34:08.153Z,59.33
2017-06-13T04:34:48.681Z,58.95
2017-06-13T04:35:29.201Z,58.56
2017-06-13T04:36:09.722Z,57.79
2017-06-13T04:36:50.249Z,57.31
2017-06-13T04:37:30.776Z,57.12
2017-06-13T04:38:11.301Z,56.54
2017-06-13T04:38:51.827Z,55.48
2017-06-13T04:39:32.368Z,55.7
2017-06-13T04:40:12.890Z,54.93
2017-06-13T04:40:53.410Z,54.66
2017-06-13T04:41:33.927Z,53.15
2017-06-13T04:42:14.488Z,52.21
2017-06-13T04:42:55.009Z,50.31
2017-06-13T04:43:35.535Z,49.27
2017-06-13T04:44:16.053Z,48.61
2017-06-13T04:44:56.580Z,48.49
2017-06-13T04:45:37.096Z,48.59
2017-06-13T04:46:17.609Z,49.34
2017-06-13T04:46:58.144Z,49.99
2017-06-13T04:47:38.680Z,50.57
2017-06-13T04:48:19.198Z,51.32
2017-06-13T04:48:59.725Z,51.89
2017-06-13T04:49:40.250Z,51.99
2017-06-13T04:50:20.776Z,52.45
2017-06-13T04:51:01.311Z,52.64
2017-06-13T04:51:41.865Z,53.67
2017-06-13T04:52:22.387Z,53.77
2017-06-13T04:53:02.917Z,53.96
2017-06-13T04:53:43.428Z,54.25
2017-06-13T04:54:23.950Z,53.7
2017-06-13T04:55:04.463Z,53.03
2017-06-13T04:55:44.987Z,52.28
2017-06-13T04:56:25.535Z,52.09
2017-06-13T04:57:06.053Z,52.25
2017-06-13T04:57:46.602Z,53.22
2017-06-13T04:58:27.098Z,53.22
2017-06-13T04:59:07.611Z,53.41
2017-06-13T04:59:48.134Z,53.41
2017-06-13T05:00:28.655Z,53.41
2017-06-13T05:01:09.162Z,53.48
2017-06-13T05:01:49.693Z,53.41
2017-06-13T05:02:30.209Z,53.87
2017-06-13T05:03:10.733Z,53.77
2017-06-13T05:03:51.259Z,54.74
2017-06-13T05:04:31.764Z,54.54
2017-06-13T05:05:12.297Z,54.35
2017-06-13T05:05:52.818Z,54.54
2017-06-13T05:06:33.330Z,54.74
2017-06-13T05:07:13.838Z,54.74
2017-06-13T05:07:54.350Z,54.83
2017-06-13T05:08:34.900Z,54.93
2017-06-13T05:09:15.421Z,54.83
2017-06-13T05:09:55.951Z,54.93
2017-06-13T05:10:36.475Z,55.22
2017-06-13T05:11:16.979Z,55.02
2017-06-13T05:11:57.512Z,55.31
2017-06-13T05:12:38.049Z,55.31
2017-06-13T05:13:18.563Z,55.41
2017-06-13T05:13:59.080Z,55.41
2017-06-13T05:14:39.640Z,55.31
2017-06-13T05:15:20.167Z,55.7
2017-06-13T05:16:00.690Z,57.34
2017-06-13T05:16:41.229Z,60.23
2017-06-13T05:17:21.767Z,61.96
2017-06-13T05:18:02.299Z,65.14
2017-06-13T05:18:42.841Z,64.47
2017-06-13T05:19:23.359Z,63.7
2017-06-13T05:20:03.882Z,65.14
2017-06-13T05:20:44.482Z,64.08
2017-06-13T05:21:24.936Z,62.93
2017-06-13T05:22:05.708Z,62.54
2017-06-13T05:22:46.233Z,60.42
2017-06-13T05:23:26.775Z,57.92
2017-06-13T05:24:07.942Z,57.53
2017-06-13T05:24:48.401Z,57.5
2017-06-13T05:25:29.494Z,56.92
2017-06-13T05:26:10.021Z,56.73
2017-06-13T05:26:50.542Z,55.96
2017-06-13T05:27:31.068Z,55.79
2017-06-13T05:28:11.766Z,62.15
2017-06-13T05:28:52.599Z,60.52
2017-06-13T05:30:51.029Z,55.79
2017-06-13T05:31:31.557Z,56.21
2017-06-13T05:32:12.092Z,59.2
2017-06-13T05:32:52.597Z,62.66
2017-06-13T05:33:33.125Z,62.76
2017-06-13T05:34:13.666Z,62.54
2017-06-13T05:34:54.204Z,60.06
2017-06-13T05:35:34.724Z,63.98
2017-06-13T05:36:15.280Z,58.52
2017-06-13T05:36:56.234Z,63.24
2017-06-13T05:37:36.760Z,66.43
2017-06-13T05:38:17.312Z,64.02
2017-06-13T05:38:57.841Z,63.06
2017-06-13T05:39:38.368Z,63.24
2017-06-13T05:40:18.861Z,63.34
2017-06-13T05:40:59.397Z,62.15
2017-06-13T05:41:39.916Z,63.98
2017-06-13T05:42:20.602Z,62.93
2017-06-13T05:43:00.983Z,61.41
2017-06-13T05:43:41.474Z,60.61
2017-06-13T05:44:22.054Z,56.95
2017-06-13T05:45:02.552Z,55.22
2017-06-13T05:45:43.111Z,55.22
2017-06-13T05:46:23.635Z,56.09
2017-06-13T05:47:04.554Z,55.79
2017-06-13T05:47:45.045Z,55.79
2017-06-13T05:48:25.612Z,56.09
2017-06-13T05:49:06.132Z,59.55
2017-06-13T05:49:46.616Z,56.37
2017-06-13T05:50:27.400Z,54.54
2017-06-13T05:51:07.876Z,53.48
2017-06-13T05:51:48.391Z,55.31
2017-06-13T05:52:28.896Z,56.98
2017-06-13T05:53:09.437Z,55.7
2017-06-13T05:53:49.976Z,57.24
2017-06-13T05:54:30.482Z,59.45
2017-06-13T05:55:11.131Z,56.76
2017-06-13T05:55:51.568Z,56.79
2017-06-13T05:56:32.119Z,59.87
2017-06-13T05:57:12.846Z,61.03
2017-06-13T05:57:53.392Z,59.32
2017-06-13T05:58:34.001Z,57.23
2017-06-13T05:59:14.440Z,56
2017-06-13T05:59:54.942Z,56.9
2017-06-13T06:00:35.471Z,59.6
2017-06-13T06:01:16.243Z,55.93
2017-06-13T06:01:56.825Z,51.03
2017-06-13T06:02:37.274Z,52.02
2017-06-13T06:03:17.796Z,49.54
2017-06-13T06:03:58.355Z,47.31
2017-06-13T06:04:38.898Z,50.7
2017-06-13T06:05:19.377Z,53.41
2017-06-13T06:05:59.825Z,55.73
2017-06-13T06:06:40.327Z,54.66
2017-06-13T06:07:20.870Z,54.08
2017-06-13T06:08:01.369Z,55.73
2017-06-13T06:08:41.831Z,54.35
2017-06-13T06:09:22.281Z,55.02
2017-06-13T06:10:02.806Z,58.04
2017-06-13T06:10:43.324Z,59.89
2017-06-13T06:11:23.855Z,58.04
2017-06-13T06:12:04.444Z,49.95
2017-06-13T06:12:44.938Z,53.33
2017-06-13T06:13:25.403Z,51.5
2017-06-13T06:14:05.954Z,57.4
2017-06-13T06:14:46.450Z,57.14
2017-06-13T06:15:26.980Z,53.55
2017-06-13T06:16:07.506Z,52.68
2017-06-13T06:16:47.949Z,46.97
2017-06-13T06:17:28.485Z,48.35
2017-06-13T06:18:09.036Z,46.8
2017-06-13T06:18:49.537Z,45.64
2017-06-13T06:19:30.049Z,45.27
2017-06-13T06:20:10.538Z,44.88
2017-06-13T06:20:51.286Z,44.61
2017-06-13T06:21:31.803Z,46.16
2017-06-13T06:22:12.377Z,52.18
2017-06-13T06:22:52.841Z,50.62
2017-06-13T06:23:33.366Z,48.95
2017-06-13T06:24:13.847Z,48.1
2017-06-13T06:24:54.403Z,52.95
2017-06-13T06:25:34.883Z,56.93
2017-06-13T06:26:15.366Z,54.8
2017-06-13T06:26:55.869Z,54.5
2017-06-13T06:27:36.325Z,56.71
2017-06-13T06:28:16.807Z,51.59
2017-06-13T06:28:57.295Z,49
2017-06-13T06:29:37.782Z,46.86
2017-06-13T06:30:18.289Z,46.19
2017-06-13T06:30:58.811Z,49
2017-06-13T06:31:39.354Z,50.74
2017-06-13T06:32:19.834Z,43.27
2017-06-13T06:33:00.316Z,40.54
2017-06-13T06:33:40.819Z,41.02
2017-06-13T06:34:21.288Z,42.5
2017-06-13T06:35:01.858Z,48.61
2017-06-13T06:35:42.471Z,51.23
2017-06-13T06:36:22.930Z,53.27
2017-06-13T06:37:03.446Z,53.53
2017-06-13T06:37:43.950Z,54.99
2017-06-13T06:38:24.403Z,56.13
2017-06-13T06:39:04.919Z,52.73
2017-06-13T06:39:45.427Z,46.72
2017-06-13T06:40:25.974Z,43.62
2017-06-13T06:41:06.454Z,44.71
2017-06-13T06:41:46.954Z,51.01
2017-06-13T06:42:27.437Z,54.86
2017-06-13T06:43:07.959Z,52.34
2017-06-13T06:43:48.481Z,46.22
2017-06-13T06:44:28.958Z,46.24
2017-06-13T06:45:09.483Z,45.27
2017-06-13T06:45:49.987Z,44.13
2017-06-13T06:46:30.480Z,46.16
2017-06-13T06:47:11.021Z,47.42
2017-06-13T06:47:51.485Z,51.01
2017-06-13T06:48:32.010Z,54.7
2017-06-13T06:49:12.500Z,56.32
2017-06-13T06:49:52.975Z,56.77
2017-06-13T06:50:33.517Z,50.48
2017-06-13T06:51:14.040Z,48.54
2017-06-13T06:51:54.520Z,46.7
2017-06-13T06:52:35.035Z,48.95
2017-06-13T06:53:15.561Z,48.57
2017-06-13T06:53:56.098Z,48.57
2017-06-13T06:54:36.573Z,48.57
2017-06-13T06:55:17.062Z,50.7
2017-06-13T06:55:57.567Z,52.73
2017-06-13T06:56:38.054Z,51.16
2017-06-13T06:57:18.571Z,48.66
2017-06-13T06:57:59.090Z,50.5
2017-06-13T06:58:39.768Z,50.6
2017-06-13T06:59:20.135Z,46.62
2017-06-13T07:00:00.674Z,47.62
2017-06-13T07:00:41.189Z,43.43
2017-06-13T07:01:21.762Z,41.88
2017-06-13T07:03:41.191Z,46.84
2017-06-13T07:04:21.721Z,46.24
2017-06-13T07:05:02.247Z,47.13
2017-06-13T07:05:42.753Z,45.58
2017-06-13T07:06:23.259Z,43.54
2017-06-13T07:07:03.772Z,50.43
2017-06-13T07:07:44.312Z,44.42
2017-06-13T07:08:24.807Z,44.03
2017-06-13T07:09:05.321Z,42.77
2017-06-13T07:09:45.829Z,50.04
2017-06-13T07:10:26.377Z,55.18
2017-06-13T07:11:06.910Z,48.69
2017-06-13T07:11:47.499Z,50.62
2017-06-13T07:12:27.903Z,52.18
2017-06-13T07:13:08.383Z,48.8
2017-06-13T07:13:48.881Z,47.23
2017-06-13T07:14:29.476Z,47.81
2017-06-13T07:15:09.927Z,57.8
2017-06-13T07:15:50.445Z,54.99
2017-06-13T07:16:30.938Z,59.52
2017-06-13T07:17:11.624Z,61.36
2017-06-13T07:17:52.002Z,59.61
2017-06-13T07:18:32.466Z,52.34
2017-06-13T07:19:12.986Z,53.61
2017-06-13T07:19:53.514Z,52.93
2017-06-13T07:20:34.011Z,56.9
2017-06-13T07:21:14.511Z,50.31
2017-06-13T07:21:55.071Z,50.99
2017-06-13T07:22:35.507Z,57.09
2017-06-13T07:23:15.994Z,51.47
2017-06-13T07:23:56.546Z,46.82
2017-06-13T07:24:36.977Z,45.47
2017-06-13T07:25:17.508Z,44.59
2017-06-13T07:25:57.997Z,44.59
2017-06-13T07:26:38.490Z,44.13
2017-06-13T07:27:18.964Z,49.37
2017-06-13T07:27:59.448Z,50.82
2017-06-13T07:28:39.954Z,54.9
2017-06-13T07:29:20.452Z,56.03
2017-06-13T07:30:00.956Z,55.18
2017-06-13T07:30:41.418Z,47.69
2017-06-13T07:31:21.977Z,45
2017-06-13T07:32:02.473Z,47.33
2017-06-13T07:32:42.957Z,51.69
2017-06-13T07:33:23.448Z,54.6
2017-06-13T07:34:03.962Z,56.13
2017-06-13T07:34:44.455Z,51.47
2017-06-13T07:35:24.966Z,51.37
2017-06-13T07:36:05.473Z,52.34
2017-06-13T07:36:45.986Z,53.83
2017-06-13T07:37:26.478Z,51.01
2017-06-13T07:38:07.047Z,47.42
2017-06-13T07:38:47.497Z,53.34
2017-06-13T07:39:28.038Z,54.5
2017-06-13T07:40:08.487Z,52.98
2017-06-13T07:40:48.975Z,52.95
2017-06-13T07:41:29.454Z,53.15
2017-06-13T07:42:09.947Z,54.21
2017-06-13T07:42:50.475Z,52.95
2017-06-13T07:43:30.991Z,48.88
2017-06-13T07:44:11.451Z,49.27
2017-06-13T07:44:51.963Z,52.56
2017-06-13T07:45:32.464Z,48.2
2017-06-13T07:46:12.945Z,50.79
2017-06-13T07:46:53.433Z,52.73
2017-06-13T07:47:34.246Z,52.44
2017-06-13T07:48:14.740Z,47.28
2017-06-13T07:48:55.272Z,44.54
2017-06-13T07:49:35.708Z,45.05
2017-06-13T07:50:16.187Z,52.12
2017-06-13T07:50:56.729Z,50.19
2017-06-13T07:51:37.174Z,52.34
2017-06-13T07:52:17.701Z,46.99
2017-06-13T07:52:58.155Z,48.18
2017-06-13T07:53:38.671Z,50.21
2017-06-13T07:54:19.198Z,51.86
2017-06-13T07:54:59.737Z,52.61
2017-06-13T07:55:40.531Z,47.09
2017-06-13T07:56:20.983Z,46.02
2017-06-13T07:57:01.503Z,49.61
2017-06-13T07:57:42.019Z,51.64
2017-06-13T07:58:22.604Z,54.43
2017-06-13T07:59:02.984Z,51.13
2017-06-13T07:59:43.465Z,57.04
2017-06-13T08:00:23.993Z,56.56
2017-06-13T08:01:04.471Z,56.07
2017-06-13T08:01:44.987Z,59.36
2017-06-13T08:02:25.514Z,58.14
2017-06-13T08:03:06.027Z,57.75
2017-06-13T08:03:46.488Z,57.17
2017-06-13T08:04:27.008Z,60.55
2017-06-13T08:05:07.510Z,55.93
2017-06-13T08:05:48.055Z,53.89
2017-06-13T08:06:28.543Z,56.9
2017-06-13T08:07:09.021Z,55.16
2017-06-13T08:07:49.526Z,55.83
2017-06-13T08:08:30.089Z,55.64
2017-06-13T08:09:10.503Z,58.26
2017-06-13T08:09:51.027Z,55.26
2017-06-13T08:10:31.510Z,54.99
2017-06-13T08:11:11.968Z,54.28
2017-06-13T08:11:52.511Z,51.79
2017-06-13T08:12:33.011Z,52.37
2017-06-13T08:13:13.560Z,54.11
2017-06-13T08:13:54.023Z,56.15
2017-06-13T08:14:34.511Z,56.23
2017-06-13T08:15:15.352Z,53.15
2017-06-13T08:15:55.987Z,56.13
2017-06-13T08:16:36.378Z,56.23
2017-06-13T08:17:16.862Z,56.03
2017-06-13T08:17:57.370Z,52.93
2017-06-13T08:18:37.837Z,49.15
2017-06-13T08:19:18.391Z,51.47
2017-06-13T08:19:58.847Z,53.51
2017-06-13T08:20:39.389Z,53.31
2017-06-13T08:21:19.856Z,54.19
2017-06-13T08:22:00.358Z,47.89
2017-06-13T08:22:40.829Z,45.64
2017-06-13T08:23:21.320Z,48.47
2017-06-13T08:24:01.790Z,52.22
2017-06-13T08:24:42.660Z,52.42
2017-06-13T08:25:23.150Z,49.61
2017-06-13T08:26:03.658Z,47.57
2017-06-13T08:26:44.202Z,47.67
2017-06-13T08:27:24.722Z,46.51
2017-06-13T08:28:05.203Z,45.05
2017-06-13T08:28:45.707Z,45.34
2017-06-13T08:29:26.191Z,52.2
2017-06-13T08:30:06.674Z,52.87
2017-06-13T08:30:47.271Z,54.52
2017-06-13T08:31:28.068Z,55.4
2017-06-13T08:32:08.589Z,50.16
2017-06-13T08:32:49.064Z,46.87
2017-06-13T08:33:29.569Z,51.13
2017-06-13T08:34:10.039Z,52.2
2017-06-13T08:34:50.602Z,52.1
2017-06-13T08:35:31.058Z,51.52
2017-06-13T08:36:11.648Z,50.74
2017-06-13T08:36:52.483Z,48.61
2017-06-13T08:37:32.972Z,53.26
2017-06-13T08:38:14.154Z,57.62
2017-06-13T08:38:55.073Z,54.23
2017-06-13T08:39:35.510Z,58.01
2017-06-13T08:40:16.030Z,59.94
2017-06-13T08:40:56.533Z,54.71
2017-06-13T08:41:37.089Z,55.81
2017-06-13T08:42:17.552Z,56.2
2017-06-13T08:42:58.089Z,60.07
2017-06-13T08:43:38.564Z,59.69
2017-06-13T08:44:19.079Z,60.75
2017-06-13T08:44:59.551Z,59.39
2017-06-13T08:45:40.078Z,55.62
2017-06-13T08:46:20.626Z,56.2
2017-06-13T08:47:01.141Z,57.07
2017-06-13T08:47:41.656Z,55.04
2017-06-13T08:48:22.149Z,58.04
2017-06-13T08:49:02.638Z,59.46
2017-06-13T08:49:43.178Z,59.66
2017-06-13T08:50:23.671Z,55.88
2017-06-13T08:51:04.145Z,50.55